sensor_id;sensor_type;location;lat;lon;timestamp;temperature;humidity
20831;DHT22;10576;53.556;9.868;2024-02-21T00:00:18;9.10;99.90
20831;DHT22;10576;53.556;9.868;2024-02-21T00:02:44;9.10;99.90
20831;DHT22;10576;53.556;9.868;2024-02-21T00:05:09;9.10;99.90
20831;DHT22;10576;53.556;9.868;2024-02-21T00:07:34;9.00;99.90
20831;DHT22;10576;53.556;9.868;2024-02-21T00:10:00;9.00;99.90
20831;DHT22;10576;53.556;9.868;2024-02-21T00:12:26;9.00;99.90
20831;DHT22;10576;53.556;9.868;2024-02-21T00:14:51;9.00;99.90
20831;DHT22;10576;53.556;9.868;2024-02-21T00:17:17;9.10;99.90
20831;DHT22;10576;53.556;9.868;2024-02-21T00:19:42;9.00;99.90
20831;DHT22;10576;53.556;9.868;2024-02-21T00:22:08;9.00;99.90
20831;DHT22;10576;53.556;9.868;2024-02-21T00:24:33;9.00;99.90
20831;DHT22;10576;53.556;9.868;2024-02-21T00:26:59;9.00;99.90
20831;DHT22;10576;53.556;9.868;2024-02-21T00:29:24;9.00;99.90
20831;DHT22;10576;53.556;9.868;2024-02-21T00:31:50;9.00;99.90
20831;DHT22;10576;53.556;9.868;2024-02-21T00:34:16;9.00;99.90
20831;DHT22;10576;53.556;9.868;2024-02-21T00:36:41;9.00;99.90
20831;DHT22;10576;53.556;9.868;2024-02-21T00:39:07;9.10;99.90
20831;DHT22;10576;53.556;9.868;2024-02-21T00:41:32;9.00;99.90
20831;DHT22;10576;53.556;9.868;2024-02-21T00:43:58;9.00;99.90
20831;DHT22;10576;53.556;9.868;2024-02-21T00:46:23;9.00;99.90
20831;DHT22;10576;53.556;9.868;2024-02-21T00:48:49;9.00;99.90
20831;DHT22;10576;53.556;9.868;2024-02-21T00:51:16;9.10;99.90
20831;DHT22;10576;53.556;9.868;2024-02-21T00:53:42;9.10;99.90
20831;DHT22;10576;53.556;9.868;2024-02-21T00:56:07;9.10;99.90
20831;DHT22;10576;53.556;9.868;2024-02-21T00:58:33;9.00;99.90
20831;DHT22;10576;53.556;9.868;2024-02-21T01:00:58;9.10;99.90
20831;DHT22;10576;53.556;9.868;2024-02-21T01:03:24;9.10;99.90
20831;DHT22;10576;53.556;9.868;2024-02-21T01:05:49;9.10;99.90
20831;DHT22;10576;53.556;9.868;2024-02-21T01:08:14;9.10;99.90
20831;DHT22;10576;53.556;9.868;2024-02-21T01:10:40;9.10;99.90
20831;DHT22;10576;53.556;9.868;2024-02-21T01:13:06;9.10;99.90
20831;DHT22;10576;53.556;9.868;2024-02-21T01:15:32;9.10;99.90
20831;DHT22;10576;53.556;9.868;2024-02-21T01:17:58;9.10;99.90
20831;DHT22;10576;53.556;9.868;2024-02-21T01:20:23;9.20;99.90
20831;DHT22;10576;53.556;9.868;2024-02-21T01:22:49;9.10;99.90
20831;DHT22;10576;53.556;9.868;2024-02-21T01:25:14;9.10;99.90
20831;DHT22;10576;53.556;9.868;2024-02-21T01:27:40;9.10;99.90
20831;DHT22;10576;53.556;9.868;2024-02-21T01:30:06;9.20;99.90
20831;DHT22;10576;53.556;9.868;2024-02-21T01:32:32;9.10;99.90
20831;DHT22;10576;53.556;9.868;2024-02-21T01:34:57;9.10;99.90
20831;DHT22;10576;53.556;9.868;2024-02-21T01:37:23;9.10;99.90
20831;DHT22;10576;53.556;9.868;2024-02-21T01:39:48;9.10;99.90
20831;DHT22;10576;53.556;9.868;2024-02-21T01:42:14;9.10;99.90
20831;DHT22;10576;53.556;9.868;2024-02-21T01:44:40;9.10;99.90
20831;DHT22;10576;53.556;9.868;2024-02-21T01:47:06;9.10;99.90
20831;DHT22;10576;53.556;9.868;2024-02-21T01:49:33;9.10;99.90
20831;DHT22;10576;53.556;9.868;2024-02-21T01:51:59;9.00;99.90
20831;DHT22;10576;53.556;9.868;2024-02-21T01:54:25;9.00;99.90
20831;DHT22;10576;53.556;9.868;2024-02-21T01:56:50;8.90;99.90
20831;DHT22;10576;53.556;9.868;2024-02-21T01:59:16;8.90;99.90
20831;DHT22;10576;53.556;9.868;2024-02-21T02:01:42;8.90;99.90
20831;DHT22;10576;53.556;9.868;2024-02-21T02:04:08;8.90;99.90
20831;DHT22;10576;53.556;9.868;2024-02-21T02:06:34;8.90;99.90
20831;DHT22;10576;53.556;9.868;2024-02-21T02:08:59;8.90;99.90
20831;DHT22;10576;53.556;9.868;2024-02-21T02:11:25;8.80;99.90
20831;DHT22;10576;53.556;9.868;2024-02-21T02:13:50;8.80;99.90
20831;DHT22;10576;53.556;9.868;2024-02-21T02:16:16;8.80;99.90
20831;DHT22;10576;53.556;9.868;2024-02-21T02:18:41;8.80;99.90
20831;DHT22;10576;53.556;9.868;2024-02-21T02:21:09;8.80;99.90
20831;DHT22;10576;53.556;9.868;2024-02-21T02:23:36;8.80;99.90
20831;DHT22;10576;53.556;9.868;2024-02-21T02:26:01;8.80;99.90
20831;DHT22;10576;53.556;9.868;2024-02-21T02:28:27;8.80;99.90
20831;DHT22;10576;53.556;9.868;2024-02-21T02:30:52;8.80;99.90
20831;DHT22;10576;53.556;9.868;2024-02-21T02:33:18;8.80;99.90
20831;DHT22;10576;53.556;9.868;2024-02-21T02:35:43;8.80;99.90
20831;DHT22;10576;53.556;9.868;2024-02-21T02:38:09;8.80;99.90
20831;DHT22;10576;53.556;9.868;2024-02-21T02:40:37;8.80;99.90
20831;DHT22;10576;53.556;9.868;2024-02-21T02:43:03;8.80;99.90
20831;DHT22;10576;53.556;9.868;2024-02-21T02:45:29;8.70;99.90
20831;DHT22;10576;53.556;9.868;2024-02-21T02:47:54;8.80;99.90
20831;DHT22;10576;53.556;9.868;2024-02-21T02:50:22;8.70;99.90
20831;DHT22;10576;53.556;9.868;2024-02-21T02:52:48;8.80;99.90
20831;DHT22;10576;53.556;9.868;2024-02-21T02:55:13;8.80;99.90
20831;DHT22;10576;53.556;9.868;2024-02-21T02:57:39;8.80;99.90
20831;DHT22;10576;53.556;9.868;2024-02-21T03:00:07;8.80;99.90
20831;DHT22;10576;53.556;9.868;2024-02-21T03:02:32;8.80;99.90
20831;DHT22;10576;53.556;9.868;2024-02-21T03:04:58;8.80;99.90
20831;DHT22;10576;53.556;9.868;2024-02-21T03:07:24;8.90;99.90
20831;DHT22;10576;53.556;9.868;2024-02-21T03:09:50;8.30;99.90
20831;DHT22;10576;53.556;9.868;2024-02-21T03:12:15;8.90;99.90
20831;DHT22;10576;53.556;9.868;2024-02-21T03:14:49;8.90;99.90
20831;DHT22;10576;53.556;9.868;2024-02-21T03:17:15;8.90;99.90
20831;DHT22;10576;53.556;9.868;2024-02-21T03:19:40;8.90;99.90
20831;DHT22;10576;53.556;9.868;2024-02-21T03:22:06;9.00;99.90
20831;DHT22;10576;53.556;9.868;2024-02-21T03:24:31;9.00;99.90
20831;DHT22;10576;53.556;9.868;2024-02-21T03:26:57;9.00;99.90
20831;DHT22;10576;53.556;9.868;2024-02-21T03:29:24;9.00;99.90
20831;DHT22;10576;53.556;9.868;2024-02-21T03:31:50;9.10;99.90
20831;DHT22;10576;53.556;9.868;2024-02-21T03:34:15;9.00;99.90
20831;DHT22;10576;53.556;9.868;2024-02-21T03:36:41;9.00;99.90
20831;DHT22;10576;53.556;9.868;2024-02-21T03:39:06;9.10;99.90
20831;DHT22;10576;53.556;9.868;2024-02-21T03:41:34;9.10;99.90
20831;DHT22;10576;53.556;9.868;2024-02-21T03:44:00;9.10;99.90
20831;DHT22;10576;53.556;9.868;2024-02-21T03:46:25;9.10;99.90
20831;DHT22;10576;53.556;9.868;2024-02-21T03:48:51;9.10;99.90
20831;DHT22;10576;53.556;9.868;2024-02-21T03:51:16;9.10;99.90
20831;DHT22;10576;53.556;9.868;2024-02-21T03:53:42;9.20;99.90
20831;DHT22;10576;53.556;9.868;2024-02-21T03:56:08;9.10;99.90
20831;DHT22;10576;53.556;9.868;2024-02-21T03:58:33;9.10;99.90
20831;DHT22;10576;53.556;9.868;2024-02-21T04:01:02;9.30;99.90
20831;DHT22;10576;53.556;9.868;2024-02-21T04:03:28;9.50;99.90
20831;DHT22;10576;53.556;9.868;2024-02-21T04:05:53;9.10;99.90
20831;DHT22;10576;53.556;9.868;2024-02-21T04:08:19;9.00;99.90
20831;DHT22;10576;53.556;9.868;2024-02-21T04:10:44;9.00;99.90
20831;DHT22;10576;53.556;9.868;2024-02-21T04:13:10;9.00;99.90
20831;DHT22;10576;53.556;9.868;2024-02-21T04:15:35;8.90;99.90
20831;DHT22;10576;53.556;9.868;2024-02-21T04:18:01;8.90;99.90
20831;DHT22;10576;53.556;9.868;2024-02-21T04:20:28;8.90;99.90
20831;DHT22;10576;53.556;9.868;2024-02-21T04:22:54;8.90;99.90
20831;DHT22;10576;53.556;9.868;2024-02-21T04:25:19;8.90;99.90
20831;DHT22;10576;53.556;9.868;2024-02-21T04:27:45;8.90;99.90
20831;DHT22;10576;53.556;9.868;2024-02-21T04:30:11;8.90;99.90
20831;DHT22;10576;53.556;9.868;2024-02-21T04:32:37;8.90;99.90
20831;DHT22;10576;53.556;9.868;2024-02-21T04:35:03;8.90;99.90
20831;DHT22;10576;53.556;9.868;2024-02-21T04:37:28;8.90;99.90
20831;DHT22;10576;53.556;9.868;2024-02-21T04:39:54;8.80;99.90
20831;DHT22;10576;53.556;9.868;2024-02-21T04:42:19;8.80;99.90
20831;DHT22;10576;53.556;9.868;2024-02-21T04:44:45;8.80;99.90
20831;DHT22;10576;53.556;9.868;2024-02-21T04:47:10;8.80;99.90
20831;DHT22;10576;53.556;9.868;2024-02-21T04:49:36;8.80;99.90
20831;DHT22;10576;53.556;9.868;2024-02-21T04:52:01;8.90;99.90
20831;DHT22;10576;53.556;9.868;2024-02-21T04:54:27;8.90;99.90
20831;DHT22;10576;53.556;9.868;2024-02-21T04:56:52;8.90;99.90
20831;DHT22;10576;53.556;9.868;2024-02-21T04:59:18;8.90;99.90
20831;DHT22;10576;53.556;9.868;2024-02-21T05:01:43;8.80;99.90
20831;DHT22;10576;53.556;9.868;2024-02-21T05:04:09;8.80;99.90
20831;DHT22;10576;53.556;9.868;2024-02-21T05:06:38;8.80;99.90
20831;DHT22;10576;53.556;9.868;2024-02-21T05:09:04;8.80;99.90
20831;DHT22;10576;53.556;9.868;2024-02-21T05:11:30;8.80;99.90
20831;DHT22;10576;53.556;9.868;2024-02-21T05:13:55;8.80;99.90
20831;DHT22;10576;53.556;9.868;2024-02-21T05:16:21;8.80;99.90
20831;DHT22;10576;53.556;9.868;2024-02-21T05:18:46;8.80;99.90
20831;DHT22;10576;53.556;9.868;2024-02-21T05:21:12;8.80;99.90
20831;DHT22;10576;53.556;9.868;2024-02-21T05:23:38;8.80;99.90
20831;DHT22;10576;53.556;9.868;2024-02-21T05:26:05;8.80;99.90
20831;DHT22;10576;53.556;9.868;2024-02-21T05:28:31;8.70;99.90
20831;DHT22;10576;53.556;9.868;2024-02-21T05:30:56;8.70;99.90
20831;DHT22;10576;53.556;9.868;2024-02-21T05:33:22;8.70;99.90
20831;DHT22;10576;53.556;9.868;2024-02-21T05:35:47;8.70;99.90
20831;DHT22;10576;53.556;9.868;2024-02-21T05:38:15;8.70;99.90
20831;DHT22;10576;53.556;9.868;2024-02-21T05:40:41;8.70;99.90
20831;DHT22;10576;53.556;9.868;2024-02-21T05:43:07;8.70;99.90
20831;DHT22;10576;53.556;9.868;2024-02-21T05:45:32;8.70;99.90
20831;DHT22;10576;53.556;9.868;2024-02-21T05:47:58;8.70;99.90
20831;DHT22;10576;53.556;9.868;2024-02-21T05:50:23;8.70;99.90
20831;DHT22;10576;53.556;9.868;2024-02-21T05:52:55;8.70;99.90
20831;DHT22;10576;53.556;9.868;2024-02-21T05:55:21;8.70;99.90
20831;DHT22;10576;53.556;9.868;2024-02-21T05:57:47;8.70;99.90
20831;DHT22;10576;53.556;9.868;2024-02-21T06:00:12;8.70;99.90
20831;DHT22;10576;53.556;9.868;2024-02-21T06:02:38;8.90;99.90
20831;DHT22;10576;53.556;9.868;2024-02-21T06:05:04;8.70;99.90
20831;DHT22;10576;53.556;9.868;2024-02-21T06:07:33;8.80;99.90
20831;DHT22;10576;53.556;9.868;2024-02-21T06:09:58;8.70;99.90
20831;DHT22;10576;53.556;9.868;2024-02-21T06:12:24;8.70;99.90
20831;DHT22;10576;53.556;9.868;2024-02-21T06:14:49;8.70;99.90
20831;DHT22;10576;53.556;9.868;2024-02-21T06:17:15;8.70;99.90
20831;DHT22;10576;53.556;9.868;2024-02-21T06:19:42;8.70;99.90
20831;DHT22;10576;53.556;9.868;2024-02-21T06:22:07;8.70;99.90
20831;DHT22;10576;53.556;9.868;2024-02-21T06:24:34;8.70;99.90
20831;DHT22;10576;53.556;9.868;2024-02-21T06:26:59;8.70;99.90
20831;DHT22;10576;53.556;9.868;2024-02-21T06:29:25;8.70;99.90
20831;DHT22;10576;53.556;9.868;2024-02-21T06:31:50;8.70;99.90
20831;DHT22;10576;53.556;9.868;2024-02-21T06:34:16;8.70;99.90
20831;DHT22;10576;53.556;9.868;2024-02-21T06:36:42;8.70;99.90
20831;DHT22;10576;53.556;9.868;2024-02-21T06:39:07;8.70;99.90
20831;DHT22;10576;53.556;9.868;2024-02-21T06:41:33;8.70;99.90
20831;DHT22;10576;53.556;9.868;2024-02-21T06:43:59;8.60;99.90
20831;DHT22;10576;53.556;9.868;2024-02-21T06:46:28;8.70;99.90
20831;DHT22;10576;53.556;9.868;2024-02-21T06:48:54;8.70;99.90
20831;DHT22;10576;53.556;9.868;2024-02-21T06:51:21;8.70;99.90
20831;DHT22;10576;53.556;9.868;2024-02-21T06:53:47;8.70;99.90
20831;DHT22;10576;53.556;9.868;2024-02-21T06:56:13;8.70;99.90
20831;DHT22;10576;53.556;9.868;2024-02-21T06:58:38;8.70;99.90
20831;DHT22;10576;53.556;9.868;2024-02-21T07:01:04;8.70;99.90
20831;DHT22;10576;53.556;9.868;2024-02-21T07:03:29;8.70;99.90
20831;DHT22;10576;53.556;9.868;2024-02-21T07:05:55;8.70;99.90
20831;DHT22;10576;53.556;9.868;2024-02-21T07:08:20;8.80;99.90
20831;DHT22;10576;53.556;9.868;2024-02-21T07:10:47;8.70;99.90
20831;DHT22;10576;53.556;9.868;2024-02-21T07:13:12;8.80;99.90
20831;DHT22;10576;53.556;9.868;2024-02-21T07:15:38;8.90;99.90
20831;DHT22;10576;53.556;9.868;2024-02-21T07:18:04;8.80;99.90
20831;DHT22;10576;53.556;9.868;2024-02-21T07:20:29;8.80;99.90
20831;DHT22;10576;53.556;9.868;2024-02-21T07:22:55;8.80;99.90
20831;DHT22;10576;53.556;9.868;2024-02-21T07:25:20;11.80;99.90
20831;DHT22;10576;53.556;9.868;2024-02-21T07:27:46;8.80;99.90
20831;DHT22;10576;53.556;9.868;2024-02-21T07:30:11;8.80;99.90
20831;DHT22;10576;53.556;9.868;2024-02-21T07:32:37;8.80;99.90
20831;DHT22;10576;53.556;9.868;2024-02-21T07:35:02;8.90;99.90
20831;DHT22;10576;53.556;9.868;2024-02-21T07:37:28;8.80;99.90
20831;DHT22;10576;53.556;9.868;2024-02-21T07:39:54;8.80;99.90
20831;DHT22;10576;53.556;9.868;2024-02-21T07:42:19;8.90;99.90
20831;DHT22;10576;53.556;9.868;2024-02-21T07:44:45;8.80;99.90
20831;DHT22;10576;53.556;9.868;2024-02-21T07:47:10;8.90;99.90
20831;DHT22;10576;53.556;9.868;2024-02-21T07:49:45;8.80;99.90
20831;DHT22;10576;53.556;9.868;2024-02-21T07:52:11;8.90;99.90
20831;DHT22;10576;53.556;9.868;2024-02-21T07:54:36;8.90;99.90
20831;DHT22;10576;53.556;9.868;2024-02-21T07:57:02;8.90;99.90
20831;DHT22;10576;53.556;9.868;2024-02-21T07:59:29;8.90;99.90
20831;DHT22;10576;53.556;9.868;2024-02-21T08:01:57;8.90;99.90
20831;DHT22;10576;53.556;9.868;2024-02-21T08:04:23;8.90;99.90
20831;DHT22;10576;53.556;9.868;2024-02-21T08:06:52;8.90;99.90
20831;DHT22;10576;53.556;9.868;2024-02-21T08:09:18;8.90;99.90
20831;DHT22;10576;53.556;9.868;2024-02-21T08:11:44;9.00;99.90
20831;DHT22;10576;53.556;9.868;2024-02-21T08:14:10;9.00;99.90
20831;DHT22;10576;53.556;9.868;2024-02-21T08:16:35;9.00;99.90
20831;DHT22;10576;53.556;9.868;2024-02-21T08:19:00;9.00;99.90
20831;DHT22;10576;53.556;9.868;2024-02-21T08:21:28;9.00;99.90
20831;DHT22;10576;53.556;9.868;2024-02-21T08:23:54;9.00;99.90
20831;DHT22;10576;53.556;9.868;2024-02-21T08:26:20;9.00;99.90
20831;DHT22;10576;53.556;9.868;2024-02-21T08:28:45;9.80;99.90
20831;DHT22;10576;53.556;9.868;2024-02-21T08:31:11;9.00;99.90
20831;DHT22;10576;53.556;9.868;2024-02-21T08:33:36;9.10;99.90
20831;DHT22;10576;53.556;9.868;2024-02-21T08:36:02;9.10;99.90
20831;DHT22;10576;53.556;9.868;2024-02-21T08:38:28;9.10;99.90
20831;DHT22;10576;53.556;9.868;2024-02-21T08:40:54;9.00;99.90
20831;DHT22;10576;53.556;9.868;2024-02-21T08:43:19;9.00;99.90
20831;DHT22;10576;53.556;9.868;2024-02-21T08:45:44;9.00;99.90
20831;DHT22;10576;53.556;9.868;2024-02-21T08:48:10;9.00;99.90
20831;DHT22;10576;53.556;9.868;2024-02-21T08:50:35;9.00;99.90
20831;DHT22;10576;53.556;9.868;2024-02-21T08:53:01;9.00;99.90
20831;DHT22;10576;53.556;9.868;2024-02-21T08:55:27;9.00;99.90
20831;DHT22;10576;53.556;9.868;2024-02-21T08:57:52;9.00;99.90
20831;DHT22;10576;53.556;9.868;2024-02-21T09:00:18;9.00;99.90
20831;DHT22;10576;53.556;9.868;2024-02-21T09:02:46;9.10;99.90
20831;DHT22;10576;53.556;9.868;2024-02-21T09:05:12;9.00;99.90
20831;DHT22;10576;53.556;9.868;2024-02-21T09:07:37;9.00;99.90
20831;DHT22;10576;53.556;9.868;2024-02-21T09:10:03;9.10;99.90
20831;DHT22;10576;53.556;9.868;2024-02-21T09:12:28;9.10;99.90
20831;DHT22;10576;53.556;9.868;2024-02-21T09:14:54;9.10;99.90
20831;DHT22;10576;53.556;9.868;2024-02-21T09:17:20;9.00;99.90
20831;DHT22;10576;53.556;9.868;2024-02-21T09:19:50;9.10;99.90
20831;DHT22;10576;53.556;9.868;2024-02-21T09:22:16;9.10;99.90
20831;DHT22;10576;53.556;9.868;2024-02-21T09:24:41;9.10;99.90
20831;DHT22;10576;53.556;9.868;2024-02-21T09:27:07;9.10;99.90
20831;DHT22;10576;53.556;9.868;2024-02-21T09:29:32;9.00;99.90
20831;DHT22;10576;53.556;9.868;2024-02-21T09:32:01;9.00;99.90
20831;DHT22;10576;53.556;9.868;2024-02-21T09:34:28;9.00;99.90
20831;DHT22;10576;53.556;9.868;2024-02-21T09:36:53;9.00;99.90
20831;DHT22;10576;53.556;9.868;2024-02-21T09:39:19;9.00;99.90
20831;DHT22;10576;53.556;9.868;2024-02-21T09:41:55;9.10;99.90
20831;DHT22;10576;53.556;9.868;2024-02-21T09:44:24;9.00;99.90
20831;DHT22;10576;53.556;9.868;2024-02-21T09:49:24;9.10;99.90
20831;DHT22;10576;53.556;9.868;2024-02-21T09:51:53;9.00;99.90
20831;DHT22;10576;53.556;9.868;2024-02-21T09:54:19;9.00;99.90
20831;DHT22;10576;53.556;9.868;2024-02-21T09:56:46;9.00;99.90
20831;DHT22;10576;53.556;9.868;2024-02-21T09:59:13;9.00;99.90
20831;DHT22;10576;53.556;9.868;2024-02-21T10:01:39;9.10;99.90
20831;DHT22;10576;53.556;9.868;2024-02-21T10:04:04;9.00;99.90
20831;DHT22;10576;53.556;9.868;2024-02-21T10:06:30;9.10;99.90
20831;DHT22;10576;53.556;9.868;2024-02-21T10:08:55;9.10;99.90
20831;DHT22;10576;53.556;9.868;2024-02-21T10:11:27;9.10;99.90
20831;DHT22;10576;53.556;9.868;2024-02-21T10:14:05;9.20;99.90
20831;DHT22;10576;53.556;9.868;2024-02-21T10:16:31;9.30;99.90
20831;DHT22;10576;53.556;9.868;2024-02-21T10:18:56;9.30;99.90
20831;DHT22;10576;53.556;9.868;2024-02-21T10:21:22;9.30;99.90
20831;DHT22;10576;53.556;9.868;2024-02-21T10:23:48;9.30;99.90
20831;DHT22;10576;53.556;9.868;2024-02-21T10:26:14;9.40;99.90
20831;DHT22;10576;53.556;9.868;2024-02-21T10:28:40;9.40;99.90
20831;DHT22;10576;53.556;9.868;2024-02-21T10:31:08;9.40;99.90
20831;DHT22;10576;53.556;9.868;2024-02-21T10:33:33;9.40;99.90
20831;DHT22;10576;53.556;9.868;2024-02-21T10:36:08;9.40;99.90
20831;DHT22;10576;53.556;9.868;2024-02-21T10:38:35;9.40;99.90
20831;DHT22;10576;53.556;9.868;2024-02-21T10:41:01;9.50;99.90
20831;DHT22;10576;53.556;9.868;2024-02-21T10:43:29;9.50;99.90
20831;DHT22;10576;53.556;9.868;2024-02-21T10:45:56;9.60;99.90
20831;DHT22;10576;53.556;9.868;2024-02-21T10:48:29;9.50;99.90
20831;DHT22;10576;53.556;9.868;2024-02-21T10:51:11;9.50;99.90
20831;DHT22;10576;53.556;9.868;2024-02-21T10:58:40;9.50;99.90
20831;DHT22;10576;53.556;9.868;2024-02-21T11:01:07;9.50;99.90
20831;DHT22;10576;53.556;9.868;2024-02-21T11:03:33;9.50;99.90
20831;DHT22;10576;53.556;9.868;2024-02-21T11:05:58;9.50;99.90
20831;DHT22;10576;53.556;9.868;2024-02-21T11:08:24;9.40;99.90
20831;DHT22;10576;53.556;9.868;2024-02-21T11:10:56;9.40;99.90
20831;DHT22;10576;53.556;9.868;2024-02-21T11:13:29;9.40;99.90
20831;DHT22;10576;53.556;9.868;2024-02-21T11:16:05;9.50;99.90
20831;DHT22;10576;53.556;9.868;2024-02-21T11:18:30;9.50;99.90
20831;DHT22;10576;53.556;9.868;2024-02-21T11:20:56;9.40;99.90
20831;DHT22;10576;53.556;9.868;2024-02-21T11:23:25;9.50;99.90
20831;DHT22;10576;53.556;9.868;2024-02-21T11:25:51;9.50;99.90
20831;DHT22;10576;53.556;9.868;2024-02-21T11:28:16;9.50;99.90
20831;DHT22;10576;53.556;9.868;2024-02-21T11:30:50;9.50;99.90
20831;DHT22;10576;53.556;9.868;2024-02-21T11:33:16;9.40;99.90
20831;DHT22;10576;53.556;9.868;2024-02-21T11:35:43;9.40;99.90
20831;DHT22;10576;53.556;9.868;2024-02-21T11:38:12;9.40;99.90
20831;DHT22;10576;53.556;9.868;2024-02-21T11:40:41;9.40;99.90
20831;DHT22;10576;53.556;9.868;2024-02-21T11:43:07;9.40;99.90
20831;DHT22;10576;53.556;9.868;2024-02-21T11:45:33;9.40;99.90
20831;DHT22;10576;53.556;9.868;2024-02-21T11:47:59;9.40;99.90
20831;DHT22;10576;53.556;9.868;2024-02-21T11:50:26;9.40;99.90
20831;DHT22;10576;53.556;9.868;2024-02-21T11:52:54;9.40;99.90
20831;DHT22;10576;53.556;9.868;2024-02-21T11:55:19;9.40;99.90
20831;DHT22;10576;53.556;9.868;2024-02-21T11:57:45;9.40;99.90
20831;DHT22;10576;53.556;9.868;2024-02-21T12:00:17;9.40;99.90
20831;DHT22;10576;53.556;9.868;2024-02-21T12:02:43;9.50;99.90
20831;DHT22;10576;53.556;9.868;2024-02-21T12:05:10;9.50;99.90
20831;DHT22;10576;53.556;9.868;2024-02-21T12:07:36;9.60;99.90
20831;DHT22;10576;53.556;9.868;2024-02-21T12:10:02;9.50;99.90
20831;DHT22;10576;53.556;9.868;2024-02-21T12:12:28;9.40;99.90
20831;DHT22;10576;53.556;9.868;2024-02-21T12:14:57;9.50;99.90
20831;DHT22;10576;53.556;9.868;2024-02-21T12:17:25;9.40;99.90
20831;DHT22;10576;53.556;9.868;2024-02-21T12:19:51;9.30;99.90
20831;DHT22;10576;53.556;9.868;2024-02-21T12:22:18;9.30;99.90
20831;DHT22;10576;53.556;9.868;2024-02-21T12:24:43;9.30;99.90
20831;DHT22;10576;53.556;9.868;2024-02-21T12:27:12;9.30;99.90
20831;DHT22;10576;53.556;9.868;2024-02-21T12:29:37;9.30;99.90
20831;DHT22;10576;53.556;9.868;2024-02-21T12:32:03;9.30;99.90
20831;DHT22;10576;53.556;9.868;2024-02-21T12:34:29;9.30;99.90
20831;DHT22;10576;53.556;9.868;2024-02-21T12:36:58;9.30;99.90
20831;DHT22;10576;53.556;9.868;2024-02-21T12:39:23;9.30;99.90
20831;DHT22;10576;53.556;9.868;2024-02-21T12:41:49;9.20;99.90
20831;DHT22;10576;53.556;9.868;2024-02-21T12:44:14;9.20;99.90
20831;DHT22;10576;53.556;9.868;2024-02-21T12:46:41;9.20;99.90
20831;DHT22;10576;53.556;9.868;2024-02-21T12:49:07;9.20;99.90
20831;DHT22;10576;53.556;9.868;2024-02-21T12:51:35;9.20;99.90
20831;DHT22;10576;53.556;9.868;2024-02-21T12:54:01;9.20;99.90
20831;DHT22;10576;53.556;9.868;2024-02-21T12:56:28;9.20;99.90
20831;DHT22;10576;53.556;9.868;2024-02-21T12:58:55;9.20;99.90
20831;DHT22;10576;53.556;9.868;2024-02-21T13:01:20;9.30;99.90
20831;DHT22;10576;53.556;9.868;2024-02-21T13:03:46;9.30;99.90
20831;DHT22;10576;53.556;9.868;2024-02-21T13:06:12;9.40;99.90
20831;DHT22;10576;53.556;9.868;2024-02-21T13:08:37;9.40;99.90
20831;DHT22;10576;53.556;9.868;2024-02-21T13:11:03;9.40;99.90
20831;DHT22;10576;53.556;9.868;2024-02-21T13:13:30;9.50;99.90
20831;DHT22;10576;53.556;9.868;2024-02-21T13:15:55;9.50;99.90
20831;DHT22;10576;53.556;9.868;2024-02-21T13:18:21;9.60;99.90
20831;DHT22;10576;53.556;9.868;2024-02-21T13:20:47;9.70;99.90
20831;DHT22;10576;53.556;9.868;2024-02-21T13:23:12;9.70;99.90
20831;DHT22;10576;53.556;9.868;2024-02-21T13:25:38;9.70;99.90
20831;DHT22;10576;53.556;9.868;2024-02-21T13:28:03;9.70;99.90
20831;DHT22;10576;53.556;9.868;2024-02-21T13:30:29;9.70;99.90
20831;DHT22;10576;53.556;9.868;2024-02-21T13:32:54;9.70;99.90
20831;DHT22;10576;53.556;9.868;2024-02-21T13:35:20;9.70;99.90
20831;DHT22;10576;53.556;9.868;2024-02-21T13:37:46;9.80;99.90
20831;DHT22;10576;53.556;9.868;2024-02-21T13:40:11;9.80;99.90
20831;DHT22;10576;53.556;9.868;2024-02-21T13:42:39;9.90;99.90
20831;DHT22;10576;53.556;9.868;2024-02-21T13:45:05;10.00;99.90
20831;DHT22;10576;53.556;9.868;2024-02-21T13:47:31;10.00;99.90
20831;DHT22;10576;53.556;9.868;2024-02-21T13:49:57;10.00;99.90
20831;DHT22;10576;53.556;9.868;2024-02-21T13:52:22;10.00;99.90
20831;DHT22;10576;53.556;9.868;2024-02-21T13:54:51;10.00;99.90
20831;DHT22;10576;53.556;9.868;2024-02-21T13:57:17;10.10;99.90
20831;DHT22;10576;53.556;9.868;2024-02-21T13:59:42;10.10;99.90
20831;DHT22;10576;53.556;9.868;2024-02-21T14:02:08;10.20;99.90
20831;DHT22;10576;53.556;9.868;2024-02-21T14:04:34;10.20;99.90
20831;DHT22;10576;53.556;9.868;2024-02-21T14:06:59;10.20;99.90
20831;DHT22;10576;53.556;9.868;2024-02-21T14:09:26;10.10;99.90
20831;DHT22;10576;53.556;9.868;2024-02-21T14:11:51;10.10;99.90
20831;DHT22;10576;53.556;9.868;2024-02-21T14:14:17;10.10;99.90
20831;DHT22;10576;53.556;9.868;2024-02-21T14:16:42;10.20;99.90
20831;DHT22;10576;53.556;9.868;2024-02-21T14:19:08;10.20;99.90
20831;DHT22;10576;53.556;9.868;2024-02-21T14:21:34;10.30;99.90
20831;DHT22;10576;53.556;9.868;2024-02-21T14:24:05;10.30;99.90
20831;DHT22;10576;53.556;9.868;2024-02-21T14:26:31;10.30;99.90
20831;DHT22;10576;53.556;9.868;2024-02-21T14:28:57;10.40;99.90
20831;DHT22;10576;53.556;9.868;2024-02-21T14:31:22;10.30;99.90
20831;DHT22;10576;53.556;9.868;2024-02-21T14:33:48;10.30;99.90
20831;DHT22;10576;53.556;9.868;2024-02-21T14:36:13;10.30;99.90
20831;DHT22;10576;53.556;9.868;2024-02-21T14:38:41;10.30;99.90
20831;DHT22;10576;53.556;9.868;2024-02-21T14:41:06;10.30;99.90
20831;DHT22;10576;53.556;9.868;2024-02-21T14:43:32;10.70;99.90
20831;DHT22;10576;53.556;9.868;2024-02-21T14:45:58;10.30;99.90
20831;DHT22;10576;53.556;9.868;2024-02-21T14:48:23;10.30;99.90
20831;DHT22;10576;53.556;9.868;2024-02-21T14:50:49;10.30;99.90
20831;DHT22;10576;53.556;9.868;2024-02-21T14:53:15;10.30;99.90
20831;DHT22;10576;53.556;9.868;2024-02-21T14:55:40;10.20;99.90
20831;DHT22;10576;53.556;9.868;2024-02-21T14:58:08;10.20;99.90
20831;DHT22;10576;53.556;9.868;2024-02-21T15:00:34;10.20;99.90
20831;DHT22;10576;53.556;9.868;2024-02-21T15:03:00;10.20;99.90
20831;DHT22;10576;53.556;9.868;2024-02-21T15:05:25;10.20;99.90
20831;DHT22;10576;53.556;9.868;2024-02-21T15:07:51;10.20;99.90
20831;DHT22;10576;53.556;9.868;2024-02-21T15:10:17;10.10;99.90
20831;DHT22;10576;53.556;9.868;2024-02-21T15:12:44;10.10;99.90
20831;DHT22;10576;53.556;9.868;2024-02-21T15:15:10;10.10;99.90
20831;DHT22;10576;53.556;9.868;2024-02-21T15:17:35;10.10;99.90
20831;DHT22;10576;53.556;9.868;2024-02-21T15:20:01;10.10;99.90
20831;DHT22;10576;53.556;9.868;2024-02-21T15:22:27;10.00;99.90
20831;DHT22;10576;53.556;9.868;2024-02-21T15:24:53;10.00;99.90
20831;DHT22;10576;53.556;9.868;2024-02-21T15:27:18;10.00;99.90
20831;DHT22;10576;53.556;9.868;2024-02-21T15:29:44;10.00;99.90
20831;DHT22;10576;53.556;9.868;2024-02-21T15:32:10;9.90;99.90
20831;DHT22;10576;53.556;9.868;2024-02-21T15:34:36;9.90;99.90
20831;DHT22;10576;53.556;9.868;2024-02-21T15:37:01;9.90;99.90
20831;DHT22;10576;53.556;9.868;2024-02-21T15:39:27;9.90;99.90
20831;DHT22;10576;53.556;9.868;2024-02-21T15:41:53;9.80;99.90
20831;DHT22;10576;53.556;9.868;2024-02-21T15:44:19;9.80;99.90